sensor_id;sensor_type;location;lat;lon;timestamp;P1;durP1;ratioP1;P2;durP2;ratioP2
12356;SDS011;6243;51.244;6.774;2023-11-19T00:00:44;1.80;;;1.70;;
12356;SDS011;6243;51.244;6.774;2023-11-19T00:03:09;3.90;;;1.93;;
12356;SDS011;6243;51.244;6.774;2023-11-19T00:05:35;2.67;;;1.67;;
12356;SDS011;6243;51.244;6.774;2023-11-19T00:08:01;1.90;;;1.80;;
12356;SDS011;6243;51.244;6.774;2023-11-19T00:10:26;2.30;;;1.60;;
12356;SDS011;6243;51.244;6.774;2023-11-19T00:12:52;2.13;;;1.83;;
12356;SDS011;6243;51.244;6.774;2023-11-19T00:15:19;2.13;;;1.60;;
12356;SDS011;6243;51.244;6.774;2023-11-19T00:17:45;3.77;;;1.70;;
12356;SDS011;6243;51.244;6.774;2023-11-19T00:20:12;3.03;;;1.97;;
12356;SDS011;6243;51.244;6.774;2023-11-19T00:22:38;1.53;;;1.43;;
12356;SDS011;6243;51.244;6.774;2023-11-19T00:25:04;1.50;;;1.40;;
12356;SDS011;6243;51.244;6.774;2023-11-19T00:27:30;1.70;;;1.50;;
12356;SDS011;6243;51.244;6.774;2023-11-19T00:29:56;2.13;;;2.03;;
12356;SDS011;6243;51.244;6.774;2023-11-19T00:32:23;1.70;;;1.60;;
12356;SDS011;6243;51.244;6.774;2023-11-19T00:34:49;1.40;;;1.30;;
12356;SDS011;6243;51.244;6.774;2023-11-19T00:37:14;1.90;;;1.70;;
12356;SDS011;6243;51.244;6.774;2023-11-19T00:39:40;1.73;;;1.63;;
12356;SDS011;6243;51.244;6.774;2023-11-19T00:42:06;1.80;;;1.70;;
12356;SDS011;6243;51.244;6.774;2023-11-19T00:44:32;1.83;;;1.53;;
12356;SDS011;6243;51.244;6.774;2023-11-19T00:46:57;2.43;;;1.70;;
12356;SDS011;6243;51.244;6.774;2023-11-19T00:49:24;1.60;;;1.50;;
12356;SDS011;6243;51.244;6.774;2023-11-19T00:51:50;2.07;;;1.67;;
12356;SDS011;6243;51.244;6.774;2023-11-19T00:54:16;2.23;;;1.73;;
12356;SDS011;6243;51.244;6.774;2023-11-19T00:56:41;3.27;;;1.90;;
12356;SDS011;6243;51.244;6.774;2023-11-19T00:59:07;2.03;;;1.83;;
12356;SDS011;6243;51.244;6.774;2023-11-19T01:01:32;2.47;;;1.63;;
12356;SDS011;6243;51.244;6.774;2023-11-19T01:03:58;3.30;;;1.77;;
12356;SDS011;6243;51.244;6.774;2023-11-19T01:06:29;1.63;;;1.53;;
12356;SDS011;6243;51.244;6.774;2023-11-19T01:08:55;1.40;;;1.30;;
12356;SDS011;6243;51.244;6.774;2023-11-19T01:11:21;1.40;;;1.30;;
12356;SDS011;6243;51.244;6.774;2023-11-19T01:13:47;3.23;;;1.20;;
12356;SDS011;6243;51.244;6.774;2023-11-19T01:16:12;1.53;;;1.43;;
12356;SDS011;6243;51.244;6.774;2023-11-19T01:18:38;2.07;;;1.40;;
12356;SDS011;6243;51.244;6.774;2023-11-19T01:21:04;1.40;;;1.30;;
12356;SDS011;6243;51.244;6.774;2023-11-19T01:23:31;1.20;;;1.10;;
12356;SDS011;6243;51.244;6.774;2023-11-19T01:25:57;2.13;;;1.27;;
12356;SDS011;6243;51.244;6.774;2023-11-19T01:28:22;0.90;;;0.90;;
12356;SDS011;6243;51.244;6.774;2023-11-19T01:30:50;1.07;;;1.03;;
12356;SDS011;6243;51.244;6.774;2023-11-19T01:33:16;1.10;;;1.00;;
12356;SDS011;6243;51.244;6.774;2023-11-19T01:35:41;1.83;;;0.90;;
12356;SDS011;6243;51.244;6.774;2023-11-19T01:38:07;3.33;;;1.10;;
12356;SDS011;6243;51.244;6.774;2023-11-19T01:40:34;1.77;;;1.03;;
12356;SDS011;6243;51.244;6.774;2023-11-19T01:43:00;2.30;;;0.90;;
12356;SDS011;6243;51.244;6.774;2023-11-19T01:45:27;1.30;;;0.90;;
12356;SDS011;6243;51.244;6.774;2023-11-19T01:47:53;0.90;;;0.90;;
12356;SDS011;6243;51.244;6.774;2023-11-19T01:50:19;2.43;;;1.13;;
12356;SDS011;6243;51.244;6.774;2023-11-19T01:52:46;1.20;;;0.93;;
12356;SDS011;6243;51.244;6.774;2023-11-19T01:55:13;1.87;;;1.30;;
12356;SDS011;6243;51.244;6.774;2023-11-19T01:57:41;2.60;;;1.37;;
12356;SDS011;6243;51.244;6.774;2023-11-19T02:00:07;1.63;;;0.83;;
12356;SDS011;6243;51.244;6.774;2023-11-19T02:02:35;1.73;;;1.10;;
12356;SDS011;6243;51.244;6.774;2023-11-19T02:05:01;2.37;;;1.37;;
12356;SDS011;6243;51.244;6.774;2023-11-19T02:07:26;2.30;;;1.10;;
12356;SDS011;6243;51.244;6.774;2023-11-19T02:09:52;3.03;;;1.30;;
12356;SDS011;6243;51.244;6.774;2023-11-19T02:12:18;1.67;;;1.10;;
12356;SDS011;6243;51.244;6.774;2023-11-19T02:14:45;1.43;;;1.27;;
12356;SDS011;6243;51.244;6.774;2023-11-19T02:17:24;1.20;;;1.10;;
12356;SDS011;6243;51.244;6.774;2023-11-19T02:19:50;1.90;;;1.37;;
12356;SDS011;6243;51.244;6.774;2023-11-19T02:22:16;4.37;;;1.30;;
12356;SDS011;6243;51.244;6.774;2023-11-19T02:24:42;1.50;;;1.40;;
12356;SDS011;6243;51.244;6.774;2023-11-19T02:27:10;3.30;;;1.47;;
12356;SDS011;6243;51.244;6.774;2023-11-19T02:29:42;1.50;;;1.40;;
12356;SDS011;6243;51.244;6.774;2023-11-19T02:32:08;3.57;;;1.83;;
12356;SDS011;6243;51.244;6.774;2023-11-19T02:34:33;7.37;;;1.90;;
12356;SDS011;6243;51.244;6.774;2023-11-19T02:36:59;5.30;;;1.90;;
12356;SDS011;6243;51.244;6.774;2023-11-19T02:39:25;3.10;;;1.63;;
12356;SDS011;6243;51.244;6.774;2023-11-19T02:41:50;3.40;;;1.90;;
12356;SDS011;6243;51.244;6.774;2023-11-19T02:44:16;5.97;;;2.03;;
12356;SDS011;6243;51.244;6.774;2023-11-19T02:46:43;5.40;;;2.27;;
12356;SDS011;6243;51.244;6.774;2023-11-19T02:49:09;5.47;;;2.30;;
12356;SDS011;6243;51.244;6.774;2023-11-19T02:51:34;4.27;;;2.40;;
12356;SDS011;6243;51.244;6.774;2023-11-19T02:54:00;3.97;;;2.30;;
12356;SDS011;6243;51.244;6.774;2023-11-19T02:56:26;7.23;;;2.60;;
12356;SDS011;6243;51.244;6.774;2023-11-19T02:58:52;5.50;;;2.50;;
12356;SDS011;6243;51.244;6.774;2023-11-19T03:01:21;5.50;;;2.27;;
12356;SDS011;6243;51.244;6.774;2023-11-19T03:03:49;4.90;;;2.33;;
12356;SDS011;6243;51.244;6.774;2023-11-19T03:06:14;5.23;;;2.27;;
12356;SDS011;6243;51.244;6.774;2023-11-19T03:08:40;6.93;;;2.63;;
12356;SDS011;6243;51.244;6.774;2023-11-19T03:14:05;6.73;;;2.20;;
12356;SDS011;6243;51.244;6.774;2023-11-19T03:16:31;5.83;;;2.63;;
12356;SDS011;6243;51.244;6.774;2023-11-19T03:18:58;6.67;;;2.50;;
12356;SDS011;6243;51.244;6.774;2023-11-19T03:21:27;6.80;;;2.77;;
12356;SDS011;6243;51.244;6.774;2023-11-19T03:23:53;8.03;;;2.63;;
12356;SDS011;6243;51.244;6.774;2023-11-19T03:26:18;8.20;;;3.00;;
12356;SDS011;6243;51.244;6.774;2023-11-19T03:28:44;6.40;;;2.73;;
12356;SDS011;6243;51.244;6.774;2023-11-19T03:31:10;6.63;;;2.83;;
12356;SDS011;6243;51.244;6.774;2023-11-19T03:33:35;6.07;;;2.33;;
12356;SDS011;6243;51.244;6.774;2023-11-19T03:36:02;9.40;;;2.77;;
12356;SDS011;6243;51.244;6.774;2023-11-19T03:38:28;7.77;;;2.53;;
12356;SDS011;6243;51.244;6.774;2023-11-19T03:40:54;8.27;;;2.30;;
12356;SDS011;6243;51.244;6.774;2023-11-19T03:43:20;10.10;;;3.00;;
12356;SDS011;6243;51.244;6.774;2023-11-19T03:45:45;7.90;;;2.50;;
12356;SDS011;6243;51.244;6.774;2023-11-19T03:48:11;8.83;;;2.57;;
12356;SDS011;6243;51.244;6.774;2023-11-19T03:50:36;5.07;;;2.40;;
12356;SDS011;6243;51.244;6.774;2023-11-19T03:53:04;6.73;;;2.47;;
12356;SDS011;6243;51.244;6.774;2023-11-19T03:55:30;8.07;;;2.60;;
12356;SDS011;6243;51.244;6.774;2023-11-19T03:57:56;10.37;;;3.13;;
12356;SDS011;6243;51.244;6.774;2023-11-19T04:00:21;13.07;;;2.90;;
12356;SDS011;6243;51.244;6.774;2023-11-19T04:02:47;7.33;;;2.20;;
12356;SDS011;6243;51.244;6.774;2023-11-19T04:05:13;7.87;;;2.87;;
12356;SDS011;6243;51.244;6.774;2023-11-19T04:07:38;6.03;;;2.83;;
12356;SDS011;6243;51.244;6.774;2023-11-19T04:10:06;11.23;;;3.67;;
12356;SDS011;6243;51.244;6.774;2023-11-19T04:12:32;10.50;;;3.23;;
12356;SDS011;6243;51.244;6.774;2023-11-19T04:14:58;9.37;;;3.20;;
12356;SDS011;6243;51.244;6.774;2023-11-19T04:17:23;11.20;;;3.27;;
12356;SDS011;6243;51.244;6.774;2023-11-19T04:19:49;11.07;;;3.53;;
12356;SDS011;6243;51.244;6.774;2023-11-19T04:22:15;16.40;;;3.50;;
12356;SDS011;6243;51.244;6.774;2023-11-19T04:24:40;7.10;;;3.20;;
12356;SDS011;6243;51.244;6.774;2023-11-19T04:27:07;14.23;;;3.77;;
12356;SDS011;6243;51.244;6.774;2023-11-19T04:29:33;17.43;;;3.60;;
12356;SDS011;6243;51.244;6.774;2023-11-19T04:31:59;13.70;;;3.33;;
12356;SDS011;6243;51.244;6.774;2023-11-19T04:34:24;15.00;;;3.53;;
12356;SDS011;6243;51.244;6.774;2023-11-19T04:36:50;11.93;;;3.53;;
12356;SDS011;6243;51.244;6.774;2023-11-19T04:39:15;12.13;;;3.60;;
12356;SDS011;6243;51.244;6.774;2023-11-19T04:41:47;11.83;;;3.43;;
12356;SDS011;6243;51.244;6.774;2023-11-19T04:44:15;12.53;;;4.17;;
12356;SDS011;6243;51.244;6.774;2023-11-19T04:46:40;12.30;;;3.43;;
12356;SDS011;6243;51.244;6.774;2023-11-19T04:49:06;10.20;;;3.30;;
12356;SDS011;6243;51.244;6.774;2023-11-19T04:51:37;12.07;;;3.17;;
12356;SDS011;6243;51.244;6.774;2023-11-19T04:54:03;9.27;;;2.77;;
12356;SDS011;6243;51.244;6.774;2023-11-19T04:56:30;11.73;;;3.50;;
12356;SDS011;6243;51.244;6.774;2023-11-19T04:58:55;9.60;;;3.43;;
12356;SDS011;6243;51.244;6.774;2023-11-19T05:01:22;10.97;;;3.60;;
12356;SDS011;6243;51.244;6.774;2023-11-19T05:03:48;10.20;;;3.17;;
12356;SDS011;6243;51.244;6.774;2023-11-19T05:06:13;15.63;;;3.23;;
12356;SDS011;6243;51.244;6.774;2023-11-19T05:08:39;13.60;;;3.23;;
12356;SDS011;6243;51.244;6.774;2023-11-19T05:11:05;16.90;;;3.90;;
12356;SDS011;6243;51.244;6.774;2023-11-19T05:13:30;8.63;;;2.87;;
12356;SDS011;6243;51.244;6.774;2023-11-19T05:15:56;14.20;;;3.87;;
12356;SDS011;6243;51.244;6.774;2023-11-19T05:18:23;10.43;;;3.23;;
12356;SDS011;6243;51.244;6.774;2023-11-19T05:20:49;14.70;;;3.70;;
12356;SDS011;6243;51.244;6.774;2023-11-19T05:23:14;8.93;;;3.03;;
12356;SDS011;6243;51.244;6.774;2023-11-19T05:25:40;15.70;;;3.70;;
12356;SDS011;6243;51.244;6.774;2023-11-19T05:28:06;12.10;;;3.67;;
12356;SDS011;6243;51.244;6.774;2023-11-19T05:30:31;15.90;;;3.70;;
12356;SDS011;6243;51.244;6.774;2023-11-19T05:32:57;10.73;;;3.07;;
12356;SDS011;6243;51.244;6.774;2023-11-19T05:35:24;13.67;;;3.53;;
12356;SDS011;6243;51.244;6.774;2023-11-19T05:37:50;15.90;;;3.47;;
12356;SDS011;6243;51.244;6.774;2023-11-19T05:40:15;15.37;;;4.47;;
12356;SDS011;6243;51.244;6.774;2023-11-19T05:42:41;10.53;;;2.70;;
12356;SDS011;6243;51.244;6.774;2023-11-19T05:45:07;14.70;;;3.90;;
12356;SDS011;6243;51.244;6.774;2023-11-19T05:47:33;12.27;;;3.27;;
12356;SDS011;6243;51.244;6.774;2023-11-19T05:49:59;15.57;;;4.27;;
12356;SDS011;6243;51.244;6.774;2023-11-19T05:52:26;10.30;;;2.93;;
12356;SDS011;6243;51.244;6.774;2023-11-19T05:54:51;9.03;;;2.70;;
12356;SDS011;6243;51.244;6.774;2023-11-19T05:57:17;14.83;;;3.40;;
12356;SDS011;6243;51.244;6.774;2023-11-19T05:59:43;12.67;;;3.13;;
12356;SDS011;6243;51.244;6.774;2023-11-19T06:02:10;13.03;;;3.00;;
12356;SDS011;6243;51.244;6.774;2023-11-19T06:04:36;13.97;;;3.50;;
12356;SDS011;6243;51.244;6.774;2023-11-19T06:07:01;11.97;;;3.33;;
12356;SDS011;6243;51.244;6.774;2023-11-19T06:09:28;12.80;;;3.63;;
12356;SDS011;6243;51.244;6.774;2023-11-19T06:11:54;15.33;;;3.50;;
12356;SDS011;6243;51.244;6.774;2023-11-19T06:14:20;16.23;;;3.47;;
12356;SDS011;6243;51.244;6.774;2023-11-19T06:16:45;13.13;;;3.20;;
12356;SDS011;6243;51.244;6.774;2023-11-19T06:19:11;16.43;;;3.67;;
12356;SDS011;6243;51.244;6.774;2023-11-19T06:21:36;11.93;;;3.77;;
12356;SDS011;6243;51.244;6.774;2023-11-19T06:24:02;11.13;;;3.33;;
12356;SDS011;6243;51.244;6.774;2023-11-19T06:26:30;16.23;;;3.97;;
12356;SDS011;6243;51.244;6.774;2023-11-19T06:28:55;16.40;;;4.23;;
12356;SDS011;6243;51.244;6.774;2023-11-19T06:31:21;11.90;;;3.20;;
12356;SDS011;6243;51.244;6.774;2023-11-19T06:33:46;18.37;;;4.03;;
12356;SDS011;6243;51.244;6.774;2023-11-19T06:36:14;15.80;;;4.30;;
12356;SDS011;6243;51.244;6.774;2023-11-19T06:38:40;14.23;;;3.80;;
12356;SDS011;6243;51.244;6.774;2023-11-19T06:41:07;12.43;;;3.60;;
12356;SDS011;6243;51.244;6.774;2023-11-19T06:43:34;16.50;;;4.50;;
12356;SDS011;6243;51.244;6.774;2023-11-19T06:46:00;19.27;;;5.57;;
12356;SDS011;6243;51.244;6.774;2023-11-19T06:48:26;11.77;;;3.03;;
12356;SDS011;6243;51.244;6.774;2023-11-19T06:50:52;12.03;;;3.80;;
12356;SDS011;6243;51.244;6.774;2023-11-19T06:53:17;13.37;;;4.23;;
12356;SDS011;6243;51.244;6.774;2023-11-19T06:55:43;15.97;;;4.10;;
12356;SDS011;6243;51.244;6.774;2023-11-19T06:58:09;10.73;;;3.60;;
12356;SDS011;6243;51.244;6.774;2023-11-19T07:00:36;14.73;;;3.73;;
12356;SDS011;6243;51.244;6.774;2023-11-19T07:03:02;16.10;;;4.20;;
12356;SDS011;6243;51.244;6.774;2023-11-19T07:05:27;11.73;;;3.40;;
12356;SDS011;6243;51.244;6.774;2023-11-19T07:07:53;16.17;;;4.10;;
12356;SDS011;6243;51.244;6.774;2023-11-19T07:10:18;19.60;;;4.43;;
12356;SDS011;6243;51.244;6.774;2023-11-19T07:12:44;14.70;;;4.03;;
12356;SDS011;6243;51.244;6.774;2023-11-19T07:15:10;14.93;;;3.60;;
12356;SDS011;6243;51.244;6.774;2023-11-19T07:17:38;14.77;;;3.57;;
12356;SDS011;6243;51.244;6.774;2023-11-19T07:20:04;10.40;;;3.13;;
12356;SDS011;6243;51.244;6.774;2023-11-19T07:22:30;18.83;;;4.30;;
12356;SDS011;6243;51.244;6.774;2023-11-19T07:24:56;11.13;;;3.67;;
12356;SDS011;6243;51.244;6.774;2023-11-19T07:27:21;13.63;;;3.70;;
12356;SDS011;6243;51.244;6.774;2023-11-19T07:29:47;14.90;;;4.03;;
12356;SDS011;6243;51.244;6.774;2023-11-19T07:32:13;18.30;;;4.53;;
12356;SDS011;6243;51.244;6.774;2023-11-19T07:34:40;16.53;;;4.27;;
12356;SDS011;6243;51.244;6.774;2023-11-19T07:37:05;17.90;;;5.03;;
12356;SDS011;6243;51.244;6.774;2023-11-19T07:39:31;14.10;;;4.10;;
12356;SDS011;6243;51.244;6.774;2023-11-19T07:41:57;23.60;;;4.67;;
12356;SDS011;6243;51.244;6.774;2023-11-19T07:44:23;16.80;;;3.80;;
12356;SDS011;6243;51.244;6.774;2023-11-19T07:46:48;22.73;;;4.20;;
12356;SDS011;6243;51.244;6.774;2023-11-19T07:49:14;19.13;;;4.47;;
12356;SDS011;6243;51.244;6.774;2023-11-19T07:51:41;21.53;;;4.80;;
12356;SDS011;6243;51.244;6.774;2023-11-19T07:54:07;15.47;;;4.50;;
12356;SDS011;6243;51.244;6.774;2023-11-19T07:56:33;16.97;;;4.53;;
12356;SDS011;6243;51.244;6.774;2023-11-19T07:58:58;13.97;;;4.67;;
12356;SDS011;6243;51.244;6.774;2023-11-19T08:01:24;16.57;;;4.53;;
12356;SDS011;6243;51.244;6.774;2023-11-19T08:03:50;17.57;;;4.10;;
12356;SDS011;6243;51.244;6.774;2023-11-19T08:06:15;21.27;;;4.63;;
12356;SDS011;6243;51.244;6.774;2023-11-19T08:08:42;16.03;;;4.13;;
12356;SDS011;6243;51.244;6.774;2023-11-19T08:11:08;16.37;;;4.53;;
12356;SDS011;6243;51.244;6.774;2023-11-19T08:13:34;15.27;;;3.80;;
12356;SDS011;6243;51.244;6.774;2023-11-19T08:15:59;15.10;;;3.67;;
12356;SDS011;6243;51.244;6.774;2023-11-19T08:18:25;12.77;;;4.20;;
12356;SDS011;6243;51.244;6.774;2023-11-19T08:20:51;16.40;;;4.03;;
12356;SDS011;6243;51.244;6.774;2023-11-19T08:23:16;17.50;;;4.87;;
12356;SDS011;6243;51.244;6.774;2023-11-19T08:25:43;16.53;;;4.07;;
12356;SDS011;6243;51.244;6.774;2023-11-19T08:28:09;16.77;;;4.27;;
12356;SDS011;6243;51.244;6.774;2023-11-19T08:30:34;17.37;;;4.47;;
12356;SDS011;6243;51.244;6.774;2023-11-19T08:33:00;16.60;;;3.70;;
12356;SDS011;6243;51.244;6.774;2023-11-19T08:35:26;20.77;;;4.77;;
12356;SDS011;6243;51.244;6.774;2023-11-19T08:37:52;18.83;;;3.87;;
12356;SDS011;6243;51.244;6.774;2023-11-19T08:40:17;16.50;;;4.20;;
12356;SDS011;6243;51.244;6.774;2023-11-19T08:42:44;18.23;;;4.17;;
12356;SDS011;6243;51.244;6.774;2023-11-19T08:45:10;14.30;;;3.90;;
12356;SDS011;6243;51.244;6.774;2023-11-19T08:47:36;16.33;;;4.73;;
12356;SDS011;6243;51.244;6.774;2023-11-19T08:50:02;19.27;;;4.20;;
12356;SDS011;6243;51.244;6.774;2023-11-19T08:52:27;16.77;;;3.73;;
12356;SDS011;6243;51.244;6.774;2023-11-19T08:54:53;16.90;;;4.77;;
12356;SDS011;6243;51.244;6.774;2023-11-19T08:57:19;10.20;;;3.60;;
12356;SDS011;6243;51.244;6.774;2023-11-19T08:59:46;16.17;;;4.17;;
12356;SDS011;6243;51.244;6.774;2023-11-19T09:02:11;16.47;;;4.17;;
12356;SDS011;6243;51.244;6.774;2023-11-19T09:04:37;15.43;;;4.00;;
12356;SDS011;6243;51.244;6.774;2023-11-19T09:07:03;15.57;;;4.10;;
12356;SDS011;6243;51.244;6.774;2023-11-19T09:09:29;19.90;;;4.60;;
12356;SDS011;6243;51.244;6.774;2023-11-19T09:11:54;15.60;;;3.30;;
12356;SDS011;6243;51.244;6.774;2023-11-19T09:14:20;16.97;;;4.53;;
12356;SDS011;6243;51.244;6.774;2023-11-19T09:16:47;14.23;;;4.53;;
12356;SDS011;6243;51.244;6.774;2023-11-19T09:19:13;21.70;;;4.10;;
12356;SDS011;6243;51.244;6.774;2023-11-19T09:21:38;13.00;;;4.43;;
12356;SDS011;6243;51.244;6.774;2023-11-19T09:24:04;15.50;;;4.50;;
12356;SDS011;6243;51.244;6.774;2023-11-19T09:26:30;17.10;;;4.10;;
12356;SDS011;6243;51.244;6.774;2023-11-19T09:28:56;18.93;;;4.60;;
12356;SDS011;6243;51.244;6.774;2023-11-19T09:31:21;14.57;;;4.23;;
12356;SDS011;6243;51.244;6.774;2023-11-19T09:33:48;20.90;;;4.37;;
12356;SDS011;6243;51.244;6.774;2023-11-19T09:36:14;14.30;;;4.00;;
12356;SDS011;6243;51.244;6.774;2023-11-19T09:38:40;20.33;;;4.80;;
12356;SDS011;6243;51.244;6.774;2023-11-19T09:41:06;17.00;;;4.23;;
12356;SDS011;6243;51.244;6.774;2023-11-19T09:43:31;15.83;;;4.10;;
12356;SDS011;6243;51.244;6.774;2023-11-19T09:45:57;15.10;;;4.43;;
12356;SDS011;6243;51.244;6.774;2023-11-19T09:48:27;18.60;;;4.93;;
12356;SDS011;6243;51.244;6.774;2023-11-19T09:50:54;15.50;;;4.23;;
12356;SDS011;6243;51.244;6.774;2023-11-19T09:53:20;19.43;;;4.60;;
12356;SDS011;6243;51.244;6.774;2023-11-19T09:55:45;20.10;;;4.30;;
12356;SDS011;6243;51.244;6.774;2023-11-19T09:58:12;19.33;;;4.90;;
12356;SDS011;6243;51.244;6.774;2023-11-19T10:00:39;15.63;;;4.30;;
12356;SDS011;6243;51.244;6.774;2023-11-19T10:03:05;15.70;;;4.63;;
12356;SDS011;6243;51.244;6.774;2023-11-19T10:05:34;15.43;;;4.23;;
12356;SDS011;6243;51.244;6.774;2023-11-19T10:08:02;19.47;;;4.80;;
12356;SDS011;6243;51.244;6.774;2023-11-19T10:10:28;13.60;;;3.93;;
12356;SDS011;6243;51.244;6.774;2023-11-19T10:12:54;19.50;;;4.57;;
12356;SDS011;6243;51.244;6.774;2023-11-19T10:15:21;13.00;;;4.37;;
12356;SDS011;6243;51.244;6.774;2023-11-19T10:17:48;17.77;;;4.53;;
12356;SDS011;6243;51.244;6.774;2023-11-19T10:20:13;15.83;;;4.53;;
12356;SDS011;6243;51.244;6.774;2023-11-19T10:22:39;11.43;;;4.33;;
12356;SDS011;6243;51.244;6.774;2023-11-19T10:25:08;12.30;;;3.67;;
12356;SDS011;6243;51.244;6.774;2023-11-19T10:27:47;20.33;;;3.87;;
12356;SDS011;6243;51.244;6.774;2023-11-19T10:30:13;11.63;;;3.83;;
12356;SDS011;6243;51.244;6.774;2023-11-19T10:32:43;16.07;;;4.33;;
12356;SDS011;6243;51.244;6.774;2023-11-19T10:35:08;15.33;;;4.43;;
12356;SDS011;6243;51.244;6.774;2023-11-19T10:37:34;15.07;;;3.83;;
12356;SDS011;6243;51.244;6.774;2023-11-19T10:40:00;15.00;;;3.60;;
12356;SDS011;6243;51.244;6.774;2023-11-19T10:42:27;13.03;;;3.93;;
12356;SDS011;6243;51.244;6.774;2023-11-19T10:44:53;19.83;;;3.63;;
12356;SDS011;6243;51.244;6.774;2023-11-19T10:47:18;18.90;;;4.00;;
12356;SDS011;6243;51.244;6.774;2023-11-19T10:49:44;13.33;;;3.20;;
12356;SDS011;6243;51.244;6.774;2023-11-19T10:52:10;10.73;;;3.37;;
12356;SDS011;6243;51.244;6.774;2023-11-19T10:54:37;16.77;;;4.67;;
12356;SDS011;6243;51.244;6.774;2023-11-19T10:57:08;16.23;;;4.30;;
12356;SDS011;6243;51.244;6.774;2023-11-19T10:59:38;13.20;;;3.90;;
12356;SDS011;6243;51.244;6.774;2023-11-19T11:02:07;9.53;;;3.20;;
12356;SDS011;6243;51.244;6.774;2023-11-19T11:04:37;10.63;;;3.53;;
12356;SDS011;6243;51.244;6.774;2023-11-19T11:07:05;14.10;;;4.30;;
12356;SDS011;6243;51.244;6.774;2023-11-19T11:09:32;15.53;;;4.30;;
12356;SDS011;6243;51.244;6.774;2023-11-19T11:11:58;13.97;;;4.17;;
12356;SDS011;6243;51.244;6.774;2023-11-19T11:14:25;16.00;;;4.10;;
12356;SDS011;6243;51.244;6.774;2023-11-19T11:16:53;12.00;;;3.80;;
12356;SDS011;6243;51.244;6.774;2023-11-19T11:19:21;19.27;;;4.40;;
12356;SDS011;6243;51.244;6.774;2023-11-19T11:21:49;16.87;;;4.03;;
12356;SDS011;6243;51.244;6.774;2023-11-19T11:27:27;13.17;;;3.77;;
12356;SDS011;6243;51.244;6.774;2023-11-19T11:30:06;15.33;;;3.60;;
12356;SDS011;6243;51.244;6.774;2023-11-19T11:32:41;15.60;;;3.60;;
12356;SDS011;6243;51.244;6.774;2023-11-19T11:35:16;12.63;;;3.90;;
12356;SDS011;6243;51.244;6.774;2023-11-19T11:37:53;12.57;;;3.57;;
12356;SDS011;6243;51.244;6.774;2023-11-19T11:40:25;14.67;;;4.27;;
12356;SDS011;6243;51.244;6.774;2023-11-19T11:42:51;10.60;;;3.57;;
12356;SDS011;6243;51.244;6.774;2023-11-19T11:45:17;11.00;;;3.80;;
12356;SDS011;6243;51.244;6.774;2023-11-19T11:48:08;10.90;;;3.83;;
12356;SDS011;6243;51.244;6.774;2023-11-19T11:50:34;11.13;;;3.80;;
12356;SDS011;6243;51.244;6.774;2023-11-19T11:53:18;12.60;;;3.87;;
12356;SDS011;6243;51.244;6.774;2023-11-19T11:55:57;14.63;;;3.40;;
12356;SDS011;6243;51.244;6.774;2023-11-19T12:01:07;14.33;;;3.67;;
12356;SDS011;6243;51.244;6.774;2023-11-19T12:03:34;12.67;;;3.37;;
12356;SDS011;6243;51.244;6.774;2023-11-19T12:06:02;13.83;;;3.43;;
12356;SDS011;6243;51.244;6.774;2023-11-19T12:08:28;19.33;;;4.03;;
12356;SDS011;6243;51.244;6.774;2023-11-19T12:10:55;14.30;;;3.90;;
12356;SDS011;6243;51.244;6.774;2023-11-19T12:13:21;13.10;;;3.90;;
12356;SDS011;6243;51.244;6.774;2023-11-19T12:18:36;10.60;;;3.00;;
12356;SDS011;6243;51.244;6.774;2023-11-19T12:21:04;13.27;;;3.37;;
12356;SDS011;6243;51.244;6.774;2023-11-19T12:23:30;15.33;;;3.43;;
12356;SDS011;6243;51.244;6.774;2023-11-19T12:25:56;11.93;;;3.67;;
12356;SDS011;6243;51.244;6.774;2023-11-19T12:28:22;10.73;;;3.63;;
12356;SDS011;6243;51.244;6.774;2023-11-19T12:30:48;11.93;;;3.43;;
12356;SDS011;6243;51.244;6.774;2023-11-19T12:33:14;13.70;;;3.47;;
12356;SDS011;6243;51.244;6.774;2023-11-19T12:35:41;11.87;;;3.17;;
12356;SDS011;6243;51.244;6.774;2023-11-19T12:38:07;13.33;;;3.90;;
12356;SDS011;6243;51.244;6.774;2023-11-19T12:40:32;13.33;;;3.57;;
12356;SDS011;6243;51.244;6.774;2023-11-19T12:42:58;10.37;;;3.77;;
12356;SDS011;6243;51.244;6.774;2023-11-19T12:45:24;11.90;;;3.30;;
12356;SDS011;6243;51.244;6.774;2023-11-19T12:48:05;12.43;;;3.80;;
12356;SDS011;6243;51.244;6.774;2023-11-19T12:53:20;12.37;;;3.50;;
12356;SDS011;6243;51.244;6.774;2023-11-19T12:55:46;13.03;;;3.27;;
12356;SDS011;6243;51.244;6.774;2023-11-19T13:00:59;10.40;;;3.70;;
12356;SDS011;6243;51.244;6.774;2023-11-19T13:03:29;14.60;;;3.80;;
12356;SDS011;6243;51.244;6.774;2023-11-19T13:06:02;12.07;;;3.87;;
12356;SDS011;6243;51.244;6.774;2023-11-19T13:08:28;11.80;;;3.40;;
12356;SDS011;6243;51.244;6.774;2023-11-19T13:10:54;13.70;;;3.87;;
12356;SDS011;6243;51.244;6.774;2023-11-19T13:13:19;15.57;;;4.57;;
12356;SDS011;6243;51.244;6.774;2023-11-19T13:15:45;12.73;;;3.60;;
12356;SDS011;6243;51.244;6.774;2023-11-19T13:18:11;12.70;;;3.77;;
12356;SDS011;6243;51.244;6.774;2023-11-19T13:20:37;9.17;;;2.93;;
12356;SDS011;6243;51.244;6.774;2023-11-19T13:23:05;13.50;;;3.60;;
12356;SDS011;6243;51.244;6.774;2023-11-19T13:25:31;12.50;;;3.13;;
12356;SDS011;6243;51.244;6.774;2023-11-19T13:27:57;12.27;;;3.03;;
12356;SDS011;6243;51.244;6.774;2023-11-19T13:30:24;12.07;;;3.73;;
12356;SDS011;6243;51.244;6.774;2023-11-19T13:32:50;11.37;;;3.70;;
12356;SDS011;6243;51.244;6.774;2023-11-19T13:35:16;15.67;;;4.07;;
12356;SDS011;6243;51.244;6.774;2023-11-19T13:37:42;13.00;;;3.63;;
12356;SDS011;6243;51.244;6.774;2023-11-19T13:40:10;11.33;;;3.03;;
12356;SDS011;6243;51.244;6.774;2023-11-19T13:42:36;12.10;;;3.30;;
12356;SDS011;6243;51.244;6.774;2023-11-19T13:45:02;9.40;;;3.30;;
12356;SDS011;6243;51.244;6.774;2023-11-19T13:47:28;13.57;;;3.20;;
12356;SDS011;6243;51.244;6.774;2023-11-19T13:49:54;8.17;;;3.27;;
12356;SDS011;6243;51.244;6.774;2023-11-19T13:52:19;10.37;;;3.13;;
12356;SDS011;6243;51.244;6.774;2023-11-19T13:54:45;14.30;;;3.87;;
12356;SDS011;6243;51.244;6.774;2023-11-19T13:57:12;9.50;;;3.50;;
12356;SDS011;6243;51.244;6.774;2023-11-19T13:59:39;14.63;;;3.93;;
12356;SDS011;6243;51.244;6.774;2023-11-19T14:02:05;13.43;;;3.47;;
12356;SDS011;6243;51.244;6.774;2023-11-19T14:04:30;9.67;;;3.00;;
12356;SDS011;6243;51.244;6.774;2023-11-19T14:06:56;11.23;;;3.07;;
12356;SDS011;6243;51.244;6.774;2023-11-19T14:09:22;10.13;;;3.50;;
12356;SDS011;6243;51.244;6.774;2023-11-19T14:11:47;14.20;;;3.90;;
12356;SDS011;6243;51.244;6.774;2023-11-19T14:14:14;14.63;;;4.00;;
12356;SDS011;6243;51.244;6.774;2023-11-19T14:16:40;12.30;;;3.60;;
12356;SDS011;6243;51.244;6.774;2023-11-19T14:19:06;11.97;;;2.93;;
12356;SDS011;6243;51.244;6.774;2023-11-19T14:21:31;13.70;;;3.47;;
12356;SDS011;6243;51.244;6.774;2023-11-19T14:23:57;11.07;;;3.90;;
12356;SDS011;6243;51.244;6.774;2023-11-19T14:26:22;16.70;;;3.60;;
12356;SDS011;6243;51.244;6.774;2023-11-19T14:28:48;12.13;;;4.23;;
12356;SDS011;6243;51.244;6.774;2023-11-19T14:31:15;11.37;;;3.40;;
12356;SDS011;6243;51.244;6.774;2023-11-19T14:33:41;13.57;;;3.37;;
12356;SDS011;6243;51.244;6.774;2023-11-19T14:36:07;10.63;;;3.60;;
12356;SDS011;6243;51.244;6.774;2023-11-19T14:38:33;11.87;;;3.10;;
12356;SDS011;6243;51.244;6.774;2023-11-19T14:40:59;11.40;;;2.90;;
12356;SDS011;6243;51.244;6.774;2023-11-19T14:43:24;10.43;;;3.17;;
12356;SDS011;6243;51.244;6.774;2023-11-19T14:45:50;15.27;;;4.13;;
12356;SDS011;6243;51.244;6.774;2023-11-19T14:48:17;11.17;;;3.57;;
12356;SDS011;6243;51.244;6.774;2023-11-19T14:50:43;11.50;;;3.53;;
12356;SDS011;6243;51.244;6.774;2023-11-19T14:53:09;15.90;;;4.30;;
12356;SDS011;6243;51.244;6.774;2023-11-19T14:55:34;13.00;;;3.50;;
12356;SDS011;6243;51.244;6.774;2023-11-19T14:58:00;16.30;;;3.40;;
12356;SDS011;6243;51.244;6.774;2023-11-19T15:00:25;12.73;;;3.57;;
12356;SDS011;6243;51.244;6.774;2023-11-19T15:02:51;11.30;;;3.23;;
12356;SDS011;6243;51.244;6.774;2023-11-19T15:05:18;14.67;;;3.60;;